createdAt,value
2022-11-07T00:02:09.914Z,95140.47
2022-11-07T00:04:38.672Z,95140.01
2022-11-07T00:07:05.115Z,95141.77
2022-11-07T00:09:31.957Z,95138.86
2022-11-07T00:11:58.980Z,95143.19
2022-11-07T00:14:25.931Z,95145.77
2022-11-07T00:16:53.692Z,95149.16
2022-11-07T00:19:23.477Z,95147.16
2022-11-07T00:21:52.973Z,95149.27
2022-11-07T00:24:31.094Z,95156.08
2022-11-07T00:26:58.643Z,95154.42
2022-11-07T00:29:28.650Z,95153.59
2022-11-07T00:32:04.928Z,95157.96
2022-11-07T00:34:31.407Z,95151.16
2022-11-07T00:36:58.463Z,95158.42
2022-11-07T00:39:24.890Z,95154.09
2022-11-07T00:41:51.350Z,95149.41
2022-11-07T00:44:17.763Z,95148.58
2022-11-07T00:46:45.269Z,95154.09
2022-11-07T00:49:11.714Z,95151.38
2022-11-07T00:51:38.118Z,95144.11
2022-11-07T00:54:04.565Z,95145.53
2022-11-07T00:56:30.982Z,95146.69
2022-11-07T00:58:57.453Z,95142.96
2022-11-07T01:01:23.972Z,95145.53
2022-11-07T01:03:50.315Z,95142.13
2022-11-07T01:06:16.959Z,95141.77
2022-11-07T01:08:43.531Z,95139.66
2022-11-07T01:11:09.949Z,95134.97
2022-11-07T01:13:36.396Z,95142.70
2022-11-07T01:16:06.227Z,95138.84
2022-11-07T01:18:33.671Z,95138.37
2022-11-07T01:21:02.059Z,95134.86
2022-11-07T01:23:31.533Z,95132.16
2022-11-07T01:25:58.826Z,95131.23
2022-11-07T01:28:25.647Z,95131.23
2022-11-07T01:30:52.079Z,95129.95
2022-11-07T01:33:18.531Z,95116.23
2022-11-07T01:35:44.995Z,95116.23
2022-11-07T01:38:11.485Z,95117.88
2022-11-07T01:40:37.903Z,95119.64
2022-11-07T01:43:04.529Z,95118.34
2022-11-07T01:45:33.284Z,95120.10
2022-11-07T01:47:57.900Z,95119.64
2022-11-07T01:50:25.002Z,95120.56
2022-11-07T01:52:51.057Z,95120.56
2022-11-07T01:55:17.505Z,95118.13
2022-11-07T01:57:44.127Z,95108.64
2022-11-07T02:00:10.555Z,95112.14
2022-11-07T02:02:39.273Z,95114.25
2022-11-07T02:05:05.579Z,95111.68
2022-11-07T02:07:32.270Z,95113.80
2022-11-07T02:09:58.793Z,95112.97
2022-11-07T02:12:26.738Z,95114.25
2022-11-07T02:14:51.685Z,95112.61
2022-11-07T02:17:28.010Z,95116.94
2022-11-07T02:19:55.871Z,95120.34
2022-11-07T02:22:36.462Z,95120.34
2022-11-07T02:25:06.815Z,95122.91
2022-11-07T02:27:51.387Z,95126.31
2022-11-07T02:30:17.752Z,95124.34
2022-11-07T02:32:47.520Z,95126.55
2022-11-07T02:35:23.138Z,95128.53
2022-11-07T02:38:01.514Z,95128.53
2022-11-07T02:40:30.208Z,95131.11
2022-11-07T02:42:55.400Z,95127.38
2022-11-07T02:45:24.551Z,95131.94
2022-11-07T02:47:51.029Z,95127.84
2022-11-07T02:50:17.480Z,95128.67
2022-11-07T02:52:43.891Z,95124.34
2022-11-07T02:55:10.715Z,95126.91
2022-11-07T02:57:37.158Z,95126.55
2022-11-07T03:00:04.523Z,95125.63
2022-11-07T03:02:32.278Z,95127.02
2022-11-07T03:04:58.549Z,95133.83
2022-11-07T03:07:25.032Z,95132.17
2022-11-07T03:09:51.455Z,95130.06
2022-11-07T03:12:17.919Z,95132.84
2022-11-07T03:14:44.353Z,95133.53
2022-11-07T03:17:18.588Z,95135.31
2022-11-07T03:19:47.870Z,95136.11
2022-11-07T03:22:14.716Z,95138.36
2022-11-07T03:24:42.044Z,95133.53
2022-11-07T03:27:08.657Z,95134.12
2022-11-07T03:29:35.112Z,95134.12
2022-11-07T03:32:01.572Z,95136.11
2022-11-07T03:34:27.978Z,95134.75
2022-11-07T03:36:54.541Z,95139.19
2022-11-07T03:39:25.843Z,95137.80
2022-11-07T03:41:47.501Z,95142.12
2022-11-07T03:44:13.968Z,95144.70
2022-11-07T03:46:40.377Z,95147.64
2022-11-07T03:49:06.877Z,95152.33
2022-11-07T03:51:33.277Z,95157.58
2022-11-07T03:53:59.728Z,95156.66
2022-11-07T03:56:26.174Z,95166.14
2022-11-07T03:58:52.617Z,95164.95
2022-11-07T04:01:25.633Z,95168.33
2022-11-07T04:03:56.048Z,95167.03
2022-11-07T04:06:21.215Z,95171.03
2022-11-07T04:08:47.668Z,95173.98
2022-11-07T04:11:14.901Z,95182.63
2022-11-07T04:13:41.333Z,95179.59
2022-11-07T04:16:14.950Z,95187.33
2022-11-07T04:18:39.670Z,95194.59
2022-11-07T04:21:13.558Z,95200.21
2022-11-07T04:23:40.631Z,95200.54
2022-11-07T04:26:07.083Z,95196.80
2022-11-07T04:28:42.091Z,95198.09
2022-11-07T04:31:11.556Z,95203.25
2022-11-07T04:33:39.116Z,95200.31
2022-11-07T04:36:05.637Z,95196.80
2022-11-07T04:38:32.035Z,95193.04
2022-11-07T04:40:58.518Z,95192.58
2022-11-07T04:43:28.140Z,95194.83
2022-11-07T04:45:54.609Z,95199.48
2022-11-07T04:48:21.021Z,95201.27
2022-11-07T04:50:47.425Z,95201.73
2022-11-07T04:53:14.225Z,95201.73
2022-11-07T04:55:51.306Z,95207.12
2022-11-07T04:58:17.808Z,95206.29
2022-11-07T05:00:57.837Z,95206.75
2022-11-07T05:03:25.714Z,95206.75
2022-11-07T05:05:52.957Z,95212.63
2022-11-07T05:08:30.159Z,95208.41
2022-11-07T05:10:58.057Z,95210.98
2022-11-07T05:13:28.768Z,95207.94
2022-11-07T05:18:43.838Z,95215.11
2022-11-07T05:21:15.650Z,95216.00
2022-11-07T05:23:40.101Z,95224.27
2022-11-07T05:26:11.358Z,95211.91
2022-11-07T05:28:40.005Z,95211.91
2022-11-07T05:31:06.002Z,95225.68
2022-11-07T05:33:50.616Z,95228.95
2022-11-07T05:36:14.698Z,95233.64
2022-11-07T05:38:44.439Z,95231.66
2022-11-07T05:41:15.341Z,95234.47
2022-11-07T05:43:46.443Z,95235.76
2022-11-07T05:46:28.145Z,95244.31
2022-11-07T05:48:56.649Z,95245.47
2022-11-07T05:54:13.086Z,95255.45
2022-11-07T05:56:42.497Z,95257.89
2022-11-07T05:59:07.968Z,95260.84
2022-11-07T06:01:41.610Z,95260.97
2022-11-07T06:04:15.346Z,95260.37
2022-11-07T06:09:45.829Z,95264.00
2022-11-07T06:12:31.303Z,95259.91
2022-11-07T06:15:13.712Z,95274.22
2022-11-07T06:17:42.342Z,95274.34
2022-11-07T06:20:23.649Z,95278.80
2022-11-07T06:22:51.751Z,95281.72
2022-11-07T06:28:15.262Z,95289.94
2022-11-07T06:30:48.904Z,95291.23
2022-11-07T06:36:16.190Z,95292.06
2022-11-07T06:49:49.225Z,95300.72
2022-11-07T06:52:30.282Z,95303.66
2022-11-07T07:12:13.883Z,95312.22
2022-11-07T07:14:34.637Z,95315.02
2022-11-07T07:23:00.118Z,95323.36
2022-11-07T07:33:51.240Z,95322.23
2022-11-07T07:50:26.980Z,95333.72
2022-11-07T07:55:55.302Z,95332.55
2022-11-07T07:58:34.718Z,95327.97
2022-11-07T08:01:17.417Z,95329.38
2022-11-07T08:09:25.744Z,95334.44
2022-11-07T08:12:15.149Z,95312.23
2022-11-07T08:17:43.266Z,95317.40
2022-11-07T08:20:34.978Z,95326.78
2022-11-07T08:28:35.750Z,95334.16
2022-11-07T08:36:53.248Z,95319.23
2022-11-07T08:39:34.260Z,95337.06
2022-11-07T08:45:13.428Z,95341.62
2022-11-07T08:47:51.743Z,95338.02
2022-11-07T08:53:11.558Z,95338.95
2022-11-07T08:58:36.525Z,95320.81
2022-11-07T09:17:49.999Z,95336.37
2022-11-07T09:39:48.955Z,95321.30
2022-11-07T09:56:10.441Z,95306.78
2022-11-07T09:58:40.112Z,95300.36
2022-11-07T10:01:11.995Z,95294.44
2022-11-07T10:04:10.156Z,95301.48
2022-11-07T10:06:12.464Z,95306.33
2022-11-07T10:08:44.236Z,95309.34
2022-11-07T10:11:25.985Z,95307.80
2022-11-07T10:14:00.860Z,95301.52
2022-11-07T10:19:21.799Z,95306.02
2022-11-07T10:21:50.857Z,95304.00
2022-11-07T10:24:23.224Z,95301.78
2022-11-07T10:32:27.282Z,95294.95
2022-11-07T10:48:52.745Z,95267.97
2022-11-07T10:56:54.679Z,95257.51
2022-11-07T10:59:22.652Z,95253.98
2022-11-07T11:01:51.321Z,95256.47
2022-11-07T11:07:31.604Z,95254.71
2022-11-07T11:10:00.773Z,95239.86
2022-11-07T11:12:34.312Z,95238.72
2022-11-07T11:17:49.938Z,95237.42
2022-11-07T11:23:07.250Z,95227.39
2022-11-07T11:25:34.643Z,95228.06
2022-11-07T11:42:12.204Z,95208.59
2022-11-07T11:47:41.944Z,95204.30
2022-11-07T11:50:09.496Z,95197.84
2022-11-07T11:55:37.992Z,95205.68
2022-11-07T11:58:07.785Z,95198.94
2022-11-07T12:06:19.321Z,95195.98
2022-11-07T12:11:42.799Z,95193.85
2022-11-07T12:22:28.097Z,95167.69
2022-11-07T12:30:42.780Z,95167.38
2022-11-07T12:33:07.422Z,95166.98
2022-11-07T12:35:48.777Z,95160.56
2022-11-07T12:38:20.478Z,95153.42
2022-11-07T12:49:36.229Z,95164.80
2022-11-07T12:54:53.559Z,95158.90
2022-11-07T13:11:16.558Z,95153.31
2022-11-07T13:13:47.476Z,95150.37
2022-11-07T13:16:32.586Z,95157.95
2022-11-07T13:35:52.619Z,95162.54
2022-11-07T13:38:35.742Z,95159.65
2022-11-07T13:41:20.743Z,95165.88
2022-11-07T13:46:30.717Z,95165.34
2022-11-07T13:49:03.668Z,95166.73
2022-11-07T13:54:24.583Z,95170.75
2022-11-07T13:57:06.321Z,95166.91
2022-11-07T14:02:29.908Z,95171.64
2022-11-07T14:05:16.255Z,95168.64
2022-11-07T14:07:48.250Z,95171.38
2022-11-07T14:10:16.312Z,95169.14
2022-11-07T14:15:39.169Z,95163.86
2022-11-07T14:18:14.717Z,95170.41
2022-11-07T14:20:56.126Z,95161.89
2022-11-07T14:23:24.926Z,95166.00
2022-11-07T14:28:49.218Z,95172.80
2022-11-07T14:31:10.115Z,95176.12
2022-11-07T14:33:37.889Z,95179.34
2022-11-07T14:41:40.579Z,95179.87
2022-11-07T14:44:22.942Z,95185.04
2022-11-07T14:49:51.541Z,95182.45
2022-11-07T14:52:24.288Z,95185.04
2022-11-07T14:55:10.337Z,95186.01
2022-11-07T14:57:31.634Z,95189.63
2022-11-07T14:59:58.021Z,95185.39
2022-11-07T15:02:24.510Z,95193.23
2022-11-07T15:04:50.811Z,95191.02
2022-11-07T15:07:17.274Z,95189.61
2022-11-07T15:09:43.670Z,95188.18
2022-11-07T15:12:10.056Z,95192.09
2022-11-07T15:14:36.451Z,95191.27
2022-11-07T15:17:05.135Z,95196.33
2022-11-07T15:19:31.521Z,95199.84
2022-11-07T15:21:57.920Z,95162.23
2022-11-07T15:24:24.372Z,95196.13
2022-11-07T15:26:50.813Z,95202.23
2022-11-07T15:29:17.198Z,95194.95
2022-11-07T15:31:43.594Z,95200.72
2022-11-07T15:34:09.968Z,95200.91
2022-11-07T15:36:40.823Z,95200.09
2022-11-07T15:39:02.796Z,95201.73
2022-11-07T15:41:31.149Z,95201.48
2022-11-07T15:43:55.623Z,95204.89
2022-11-07T15:46:22.042Z,95210.99
2022-11-07T15:48:48.437Z,95207.59
2022-11-07T15:51:14.834Z,95204.86
2022-11-07T15:53:41.223Z,95208.98
2022-11-07T15:56:07.627Z,95212.15
2022-11-07T15:58:33.993Z,95219.28
2022-11-07T16:01:00.564Z,95222.02
2022-11-07T16:03:26.821Z,95196.85
2022-11-07T16:05:53.198Z,95200.94
2022-11-07T16:08:19.824Z,95212.50
2022-11-07T16:10:47.369Z,95215.20
2022-11-07T16:13:14.035Z,95223.66
2022-11-07T16:15:38.757Z,95224.23
2022-11-07T16:18:05.188Z,95228.83
2022-11-07T16:20:31.570Z,95236.80
2022-11-07T16:22:57.957Z,95235.86
2022-11-07T16:25:24.349Z,95239.88
2022-11-07T16:27:50.724Z,95248.16
2022-11-07T16:30:17.179Z,95255.23
2022-11-07T16:32:43.572Z,95262.73
2022-11-07T16:35:09.967Z,95265.67
2022-11-07T16:37:36.349Z,95261.91
2022-11-07T16:40:02.729Z,95263.91
2022-11-07T16:42:29.117Z,95266.38
2022-11-07T16:44:55.548Z,95256.08
2022-11-07T16:47:22.082Z,95268.61
2022-11-07T16:49:51.044Z,95272.62
2022-11-07T16:52:14.868Z,95268.03
2022-11-07T16:54:41.242Z,95274.73
2022-11-07T16:57:07.625Z,95276.03
2022-11-07T16:59:34.013Z,95278.94
2022-11-07T17:02:00.628Z,95280.73
2022-11-07T17:04:26.873Z,95279.77
2022-11-07T17:06:53.269Z,95273.95
2022-11-07T17:09:19.917Z,95291.09
2022-11-07T17:11:46.315Z,95291.45
2022-11-07T17:14:12.709Z,95285.09
2022-11-07T17:16:39.084Z,95289.94
2022-11-07T17:19:05.468Z,95287.68
2022-11-07T17:21:31.856Z,95289.11
2022-11-07T17:23:58.255Z,95286.53
2022-11-07T17:26:24.630Z,95273.52
2022-11-07T17:28:51.019Z,95286.05
2022-11-07T17:31:17.408Z,95270.72
2022-11-07T17:33:43.802Z,95281.95
2022-11-07T17:36:10.192Z,95264.74
2022-11-07T17:38:36.573Z,95277.99
2022-11-07T17:41:02.987Z,95260.75
2022-11-07T17:43:29.415Z,95260.95
2022-11-07T17:45:55.789Z,95260.95
2022-11-07T17:48:22.252Z,95265.80
2022-11-07T17:50:48.631Z,95272.58
2022-11-07T17:53:15.030Z,95282.81
2022-11-07T17:55:41.454Z,95271.78
2022-11-07T17:58:08.035Z,95271.78
2022-11-07T18:00:34.421Z,95275.27
2022-11-07T18:03:00.950Z,95288.91
2022-11-07T18:05:32.921Z,95291.59
2022-11-07T18:07:53.590Z,95298.40
2022-11-07T18:10:19.969Z,95300.16
2022-11-07T18:12:46.363Z,95298.87
2022-11-07T18:15:13.041Z,95298.87
2022-11-07T18:17:39.158Z,95307.20
2022-11-07T18:20:07.361Z,95292.30
2022-11-07T18:22:31.931Z,95292.30
2022-11-07T18:24:58.314Z,95288.20
2022-11-07T18:27:24.712Z,95284.34
2022-11-07T18:29:51.144Z,95284.34
2022-11-07T18:32:17.465Z,95298.05
2022-11-07T18:34:43.815Z,95293.95
2022-11-07T18:37:10.192Z,95292.67
2022-11-07T18:39:36.525Z,95297.47
2022-11-07T18:42:02.872Z,95280.48
2022-11-07T18:44:29.259Z,95280.48
2022-11-07T18:46:55.604Z,95289.27
2022-11-07T18:49:21.972Z,95268.97
2022-11-07T18:51:48.299Z,95268.97
2022-11-07T18:54:14.638Z,95281.39
2022-11-07T18:56:40.999Z,95276.23
2022-11-07T18:59:07.363Z,95274.61
2022-11-07T19:01:33.799Z,95259.93
2022-11-07T19:04:00.047Z,95279.98
2022-11-07T19:06:26.385Z,95288.20
2022-11-07T19:08:52.725Z,95296.41
2022-11-07T19:11:19.069Z,95281.98
2022-11-07T19:13:45.444Z,95281.98
2022-11-07T19:16:11.774Z,95295.91
2022-11-07T19:18:38.111Z,95301.79
2022-11-07T19:21:04.455Z,95301.79
2022-11-07T19:23:30.797Z,95316.70
2022-11-07T19:25:57.138Z,95316.70
2022-11-07T19:28:23.474Z,95301.44
2022-11-07T19:30:49.832Z,95329.13
2022-11-07T19:33:16.473Z,95334.53
2022-11-07T19:35:42.543Z,95333.02
2022-11-07T19:38:09.283Z,95319.03
2022-11-07T19:40:35.243Z,95333.91
2022-11-07T19:43:01.577Z,95333.91
2022-11-07T19:45:27.947Z,95338.64
2022-11-07T19:47:54.285Z,95342.61
2022-11-07T19:50:20.630Z,95348.62
2022-11-07T19:52:46.974Z,95344.75
2022-11-07T19:55:13.313Z,95320.30
2022-11-07T19:57:39.650Z,95320.30
2022-11-07T20:00:05.989Z,95342.63
2022-11-07T20:02:35.447Z,95341.11
2022-11-07T20:04:58.683Z,95343.20
2022-11-07T20:07:25.018Z,95337.11
2022-11-07T20:09:51.360Z,95316.55
2022-11-07T20:12:17.711Z,95346.73
2022-11-07T20:14:44.057Z,95341.58
2022-11-07T20:17:10.399Z,95330.88
2022-11-07T20:19:36.742Z,95335.33
2022-11-07T20:22:03.081Z,95336.16
2022-11-07T20:24:29.432Z,95339.53
2022-11-07T20:26:55.775Z,95337.09
2022-11-07T20:29:22.113Z,95322.54
2022-11-07T20:31:48.461Z,95322.54
2022-11-07T20:34:14.797Z,95342.94
2022-11-07T20:36:41.141Z,95342.51
2022-11-07T20:39:07.495Z,95342.51
2022-11-07T20:41:33.839Z,95343.08
2022-11-07T20:44:00.181Z,95342.11
2022-11-07T20:46:26.524Z,95334.15
2022-11-07T20:48:52.862Z,95334.15
2022-11-07T20:51:19.215Z,95332.95
2022-11-07T20:53:49.726Z,95350.25
2022-11-07T20:56:11.930Z,95342.84
2022-11-07T20:58:38.272Z,95348.34
2022-11-07T21:01:04.871Z,95337.42
2022-11-07T21:03:30.951Z,95357.96
2022-11-07T21:05:57.298Z,95357.96
2022-11-07T21:08:23.629Z,95357.83
2022-11-07T21:10:49.961Z,95344.70
2022-11-07T21:13:16.602Z,95344.70
2022-11-07T21:15:42.656Z,95360.88
2022-11-07T21:18:10.232Z,95359.72
2022-11-07T21:20:36.568Z,95361.94
2022-11-07T21:23:01.682Z,95364.52
2022-11-07T21:25:28.021Z,95356.41
2022-11-07T21:27:54.363Z,95356.41
2022-11-07T21:30:20.712Z,95356.88
2022-11-07T21:32:47.056Z,95357.83
2022-11-07T21:35:13.406Z,95358.66
2022-11-07T21:37:39.751Z,95360.18
2022-11-07T21:40:07.374Z,95363.09
2022-11-07T21:42:32.449Z,95356.31
2022-11-07T21:44:58.783Z,95359.92
2022-11-07T21:47:25.207Z,95359.69
2022-11-07T21:49:51.545Z,95362.03
2022-11-07T21:52:17.897Z,95362.03
2022-11-07T21:54:44.261Z,95360.28
2022-11-07T21:57:10.596Z,95361.20
2022-11-07T21:59:36.940Z,95361.70
2022-11-07T22:02:03.363Z,95367.66
2022-11-07T22:04:29.623Z,95351.59
2022-11-07T22:06:55.961Z,95351.59
2022-11-07T22:09:22.307Z,95358.95
2022-11-07T22:11:48.677Z,95358.95
2022-11-07T22:14:15.048Z,95365.08
2022-11-07T22:16:41.452Z,95365.08
2022-11-07T22:19:12.299Z,95379.03
2022-11-07T22:21:34.095Z,95379.96
2022-11-07T22:24:00.444Z,95379.50
2022-11-07T22:26:26.789Z,95380.91
2022-11-07T22:28:53.166Z,95370.80
2022-11-07T22:31:19.505Z,95370.80
2022-11-07T22:33:45.848Z,95378.80
2022-11-07T22:36:12.228Z,95381.74
2022-11-07T22:38:38.573Z,95381.74
2022-11-07T22:41:04.910Z,95377.97
2022-11-07T22:43:31.255Z,95375.30
2022-11-07T22:45:57.597Z,95389.58
2022-11-07T22:48:23.937Z,95389.58
2022-11-07T22:50:50.282Z,95382.30
2022-11-07T22:53:16.822Z,95382.30
2022-11-07T22:55:43.046Z,95385.34
2022-11-07T22:58:09.356Z,95382.44
2022-11-07T23:00:35.689Z,95381.14
2022-11-07T23:03:02.106Z,95373.73
2022-11-07T23:05:28.373Z,95382.44
2022-11-07T23:07:54.732Z,95381.97
2022-11-07T23:10:21.089Z,95379.86
2022-11-07T23:12:47.431Z,95385.11
2022-11-07T23:15:13.777Z,95383.00
2022-11-07T23:17:40.131Z,95381.25
2022-11-07T23:20:06.475Z,95371.85
2022-11-07T23:22:32.856Z,95371.85
2022-11-07T23:24:59.187Z,95389.45
2022-11-07T23:27:25.529Z,95380.09
2022-11-07T23:29:51.877Z,95380.42
2022-11-07T23:32:18.220Z,95380.42
2022-11-07T23:34:44.553Z,95379.72
2022-11-07T23:37:10.921Z,95376.31
2022-11-07T23:39:37.277Z,95376.31
2022-11-07T23:42:05.019Z,95379.02
2022-11-07T23:44:29.995Z,95375.02
2022-11-07T23:46:56.349Z,95384.98
2022-11-07T23:49:22.721Z,95382.30
2022-11-07T23:51:49.102Z,95378.43
2022-11-07T23:54:15.440Z,95377.24
2022-11-07T23:56:41.778Z,95383.69
2022-11-07T23:59:08.115Z,95377.24
